WZZ701 LHBP-LHPA
Flight info
| Callsign | WZZ701 |
|---|---|
| Flight time | 1h 8m |
| Altitude | 140 |
| Route | GILEP STAY1/0300 GILEP DCT |
| Aircraft | A320/M-SDE1E2E3FGIJ1J4RWXY/LB1 |
Departure
| Time | 2026-04-21 09:43 |
|---|---|
| Airport | Budapest Liszt Ferenc International Airport (LHBP) |
Arrival
| Time | 2026-04-21 10:52 |
|---|---|
| Airport | Pápa Air Base (LHPA) |
| Time | Latitude | Longitude | Altitude | Speed | Heading |
|---|---|---|---|---|---|
| 2026-04-21 09:09 | 47.42971 | 19.24278 | 457 ft | 0 kts | 251° |
| 2026-04-21 09:28 | 47.42969 | 19.24267 | 455 ft | 0 kts | 250° |
| 2026-04-21 09:29 | 47.42962 | 19.24239 | 457 ft | 5 kts | 250° |
| 2026-04-21 09:29 | 47.42978 | 19.24179 | 456 ft | 9 kts | 352° |
| 2026-04-21 09:29 | 47.43046 | 19.24220 | 455 ft | 11 kts | 26° |
| 2026-04-21 09:29 | 47.43108 | 19.24189 | 457 ft | 11 kts | 302° |
| 2026-04-21 09:30 | 47.43145 | 19.24080 | 455 ft | 13 kts | 296° |
| 2026-04-21 09:30 | 47.43186 | 19.23958 | 457 ft | 14 kts | 296° |
| 2026-04-21 09:30 | 47.43231 | 19.23823 | 457 ft | 15 kts | 296° |
| 2026-04-21 09:30 | 47.43280 | 19.23674 | 457 ft | 17 kts | 296° |
| 2026-04-21 09:31 | 47.43333 | 19.23514 | 457 ft | 18 kts | 296° |
| 2026-04-21 09:31 | 47.43390 | 19.23342 | 457 ft | 19 kts | 296° |
| 2026-04-21 09:31 | 47.43451 | 19.23175 | 457 ft | 18 kts | 308° |
| 2026-04-21 09:31 | 47.43548 | 19.23059 | 457 ft | 19 kts | 323° |
| 2026-04-21 09:32 | 47.43645 | 19.22951 | 457 ft | 12 kts | 323° |
| 2026-04-21 09:32 | 47.43707 | 19.22989 | 457 ft | 13 kts | 80° |
| 2026-04-21 09:32 | 47.43721 | 19.23123 | 457 ft | 14 kts | 81° |
| 2026-04-21 09:32 | 47.43736 | 19.23270 | 457 ft | 15 kts | 81° |
| 2026-04-21 09:33 | 47.43753 | 19.23429 | 457 ft | 16 kts | 81° |
| 2026-04-21 09:33 | 47.43770 | 19.23603 | 457 ft | 18 kts | 82° |
| 2026-04-21 09:33 | 47.43815 | 19.23777 | 455 ft | 20 kts | 46° |
| 2026-04-21 09:33 | 47.43907 | 19.23918 | 457 ft | 15 kts | 61° |
| 2026-04-21 09:34 | 47.43894 | 19.24061 | 457 ft | 15 kts | 127° |
| 2026-04-21 09:34 | 47.43822 | 19.24178 | 457 ft | 16 kts | 133° |
| 2026-04-21 09:34 | 47.43745 | 19.24302 | 457 ft | 17 kts | 132° |
| 2026-04-21 09:34 | 47.43664 | 19.24434 | 457 ft | 18 kts | 132° |
| 2026-04-21 09:35 | 47.43577 | 19.24574 | 457 ft | 19 kts | 133° |
| 2026-04-21 09:35 | 47.43486 | 19.24720 | 457 ft | 20 kts | 132° |
| 2026-04-21 09:35 | 47.43390 | 19.24874 | 456 ft | 21 kts | 132° |
| 2026-04-21 09:35 | 47.43312 | 19.25020 | 455 ft | 16 kts | 110° |
| 2026-04-21 09:36 | 47.43342 | 19.25171 | 457 ft | 17 kts | 44° |
| 2026-04-21 09:36 | 47.43431 | 19.25289 | 457 ft | 18 kts | 42° |
| 2026-04-21 09:36 | 47.43526 | 19.25417 | 457 ft | 19 kts | 42° |
| 2026-04-21 09:36 | 47.43628 | 19.25555 | 457 ft | 21 kts | 42° |
| 2026-04-21 09:37 | 47.43739 | 19.25702 | 457 ft | 22 kts | 42° |
| 2026-04-21 09:37 | 47.43854 | 19.25858 | 457 ft | 21 kts | 42° |
| 2026-04-21 09:37 | 47.43949 | 19.25985 | 458 ft | 13 kts | 42° |
| 2026-04-21 09:37 | 47.43979 | 19.26107 | 458 ft | 15 kts | 116° |
| 2026-04-21 09:38 | 47.43904 | 19.26231 | 455 ft | 18 kts | 132° |
| 2026-04-21 09:38 | 47.43815 | 19.26375 | 458 ft | 20 kts | 132° |
| 2026-04-21 09:38 | 47.43714 | 19.26537 | 458 ft | 23 kts | 132° |
| 2026-04-21 09:38 | 47.43600 | 19.26722 | 458 ft | 26 kts | 132° |
| 2026-04-21 09:39 | 47.43473 | 19.26927 | 458 ft | 28 kts | 133° |
| 2026-04-21 09:39 | 47.43360 | 19.27108 | 458 ft | 18 kts | 133° |
| 2026-04-21 09:39 | 47.43274 | 19.27247 | 458 ft | 20 kts | 132° |
| 2026-04-21 09:39 | 47.43175 | 19.27407 | 458 ft | 22 kts | 132° |
| 2026-04-21 09:40 | 47.43063 | 19.27587 | 458 ft | 25 kts | 133° |
| 2026-04-21 09:40 | 47.42939 | 19.27788 | 458 ft | 28 kts | 132° |
| 2026-04-21 09:40 | 47.42802 | 19.28009 | 457 ft | 30 kts | 132° |
| 2026-04-21 09:40 | 47.42654 | 19.28248 | 457 ft | 32 kts | 133° |
| 2026-04-21 09:41 | 47.42534 | 19.28441 | 457 ft | 25 kts | 133° |
| 2026-04-21 09:41 | 47.42410 | 19.28643 | 456 ft | 28 kts | 132° |
| 2026-04-21 09:41 | 47.42292 | 19.28830 | 457 ft | 17 kts | 133° |
| 2026-04-21 09:41 | 47.42225 | 19.28938 | 457 ft | 15 kts | 133° |
| 2026-04-21 09:42 | 47.42157 | 19.29074 | 457 ft | 18 kts | 113° |
| 2026-04-21 09:42 | 47.42174 | 19.29262 | 453 ft | 21 kts | 52° |
| 2026-04-21 09:42 | 47.42310 | 19.29325 | 434 ft | 19 kts | 343° |
| 2026-04-21 09:42 | 47.42504 | 19.29051 | 429 ft | 72 kts | 312° |
| 2026-04-21 09:43 | 47.42984 | 19.28273 | 458 ft | 129 kts | 313° |
| 2026-04-21 09:43 | 47.43674 | 19.27144 | 687 ft | 154 kts | 314° |
| 2026-04-21 09:43 | 47.44386 | 19.25985 | 1394 ft | 152 kts | 315° |
| 2026-04-21 09:43 | 47.45002 | 19.24690 | 2009 ft | 161 kts | 305° |
| 2026-04-21 09:44 | 47.45613 | 19.23173 | 2331 ft | 182 kts | 302° |
| 2026-04-21 09:44 | 47.46279 | 19.21445 | 2638 ft | 205 kts | 301° |
| 2026-04-21 09:44 | 47.47028 | 19.19490 | 3055 ft | 230 kts | 301° |
| 2026-04-21 09:44 | 47.47829 | 19.17400 | 3933 ft | 235 kts | 300° |
| 2026-04-21 09:45 | 47.48436 | 19.15079 | 4641 ft | 255 kts | 281° |
| 2026-04-21 09:45 | 47.48389 | 19.12406 | 5529 ft | 267 kts | 259° |
| 2026-04-21 09:45 | 47.47630 | 19.09876 | 6538 ft | 274 kts | 236° |
| 2026-04-21 09:45 | 47.46233 | 19.07946 | 7503 ft | 280 kts | 212° |
| 2026-04-21 09:46 | 47.44482 | 19.06633 | 8491 ft | 283 kts | 207° |
| 2026-04-21 09:46 | 47.42695 | 19.05350 | 9473 ft | 287 kts | 208° |
| 2026-04-21 09:46 | 47.40878 | 19.04038 | 10301 ft | 296 kts | 209° |
| 2026-04-21 09:46 | 47.39028 | 19.02469 | 10680 ft | 317 kts | 211° |
| 2026-04-21 09:47 | 47.37032 | 19.00945 | 11360 ft | 327 kts | 207° |
| 2026-04-21 09:47 | 47.34957 | 18.99516 | 12219 ft | 332 kts | 207° |
| 2026-04-21 09:47 | 47.32879 | 18.97984 | 13090 ft | 335 kts | 216° |
| 2026-04-21 09:47 | 47.31169 | 18.95670 | 13800 ft | 335 kts | 236° |
| 2026-04-21 09:48 | 47.30182 | 18.92671 | 13993 ft | 329 kts | 258° |
| 2026-04-21 09:48 | 47.30042 | 18.89397 | 14042 ft | 312 kts | 279° |
| 2026-04-21 09:48 | 47.30632 | 18.86423 | 14047 ft | 297 kts | 297° |
| 2026-04-21 09:48 | 47.31669 | 18.83807 | 14049 ft | 296 kts | 302° |
| 2026-04-21 09:49 | 47.32730 | 18.81203 | 14048 ft | 296 kts | 302° |
| 2026-04-21 09:49 | 47.33783 | 18.78598 | 14048 ft | 295 kts | 301° |
| 2026-04-21 09:49 | 47.34682 | 18.75891 | 14047 ft | 296 kts | 287° |
| 2026-04-21 09:49 | 47.34883 | 18.72866 | 14046 ft | 299 kts | 265° |
| 2026-04-21 09:50 | 47.34451 | 18.69851 | 14047 ft | 302 kts | 259° |
| 2026-04-21 09:50 | 47.34286 | 18.68836 | 14045 ft | 302 kts | 258° |
| 2026-04-21 09:50 | 47.32961 | 18.60812 | 13998 ft | 303 kts | 258° |
| 2026-04-21 09:51 | 47.32467 | 18.57813 | 13726 ft | 298 kts | 258° |
| 2026-04-21 09:51 | 47.31989 | 18.54905 | 13452 ft | 294 kts | 259° |
| 2026-04-21 09:51 | 47.31507 | 18.51984 | 13166 ft | 291 kts | 259° |
| 2026-04-21 09:51 | 47.31031 | 18.49091 | 12901 ft | 291 kts | 258° |
| 2026-04-21 09:52 | 47.30551 | 18.46185 | 12631 ft | 290 kts | 259° |
| 2026-04-21 09:52 | 47.30074 | 18.43296 | 12365 ft | 291 kts | 258° |
| 2026-04-21 09:52 | 47.29596 | 18.40408 | 12094 ft | 289 kts | 260° |
| 2026-04-21 09:52 | 47.29121 | 18.37536 | 11837 ft | 288 kts | 258° |
| 2026-04-21 09:53 | 47.28647 | 18.34670 | 11580 ft | 287 kts | 259° |
| 2026-04-21 09:53 | 47.28175 | 18.31813 | 11322 ft | 286 kts | 259° |
| 2026-04-21 09:53 | 47.27700 | 18.28962 | 11067 ft | 287 kts | 258° |
| 2026-04-21 09:53 | 47.27222 | 18.26117 | 10815 ft | 286 kts | 258° |
| 2026-04-21 09:54 | 47.26744 | 18.23274 | 10562 ft | 286 kts | 258° |
| 2026-04-21 09:54 | 47.26269 | 18.20433 | 10311 ft | 285 kts | 257° |
| 2026-04-21 09:54 | 47.25792 | 18.17598 | 10062 ft | 285 kts | 259° |
| 2026-04-21 09:54 | 47.25478 | 18.15727 | 9894 ft | 285 kts | 259° |
| 2026-04-21 09:55 | 47.25005 | 18.12903 | 9628 ft | 284 kts | 259° |
| 2026-04-21 09:55 | 47.24532 | 18.10088 | 9356 ft | 283 kts | 259° |
| 2026-04-21 09:55 | 47.23902 | 18.06368 | 9006 ft | 282 kts | 259° |
| 2026-04-21 09:55 | 47.23429 | 18.03580 | 8869 ft | 281 kts | 257° |
| 2026-04-21 09:56 | 47.23109 | 18.01697 | 8758 ft | 279 kts | 260° |
| 2026-04-21 09:56 | 47.22640 | 17.98938 | 8445 ft | 276 kts | 259° |
| 2026-04-21 09:56 | 47.22177 | 17.96214 | 8178 ft | 272 kts | 260° |
| 2026-04-21 09:56 | 47.21717 | 17.93526 | 7812 ft | 271 kts | 259° |
| 2026-04-21 09:57 | 47.21258 | 17.90839 | 7453 ft | 271 kts | 259° |
| 2026-04-21 09:57 | 47.20805 | 17.88192 | 7125 ft | 270 kts | 259° |
| 2026-04-21 09:57 | 47.20349 | 17.85521 | 6783 ft | 268 kts | 259° |
| 2026-04-21 09:57 | 47.19894 | 17.82862 | 6449 ft | 268 kts | 261° |
| 2026-04-21 09:58 | 47.19443 | 17.80204 | 6106 ft | 268 kts | 259° |
| 2026-04-21 09:58 | 47.18991 | 17.77562 | 5766 ft | 266 kts | 259° |
| 2026-04-21 09:58 | 47.18536 | 17.74923 | 5438 ft | 265 kts | 261° |
| 2026-04-21 09:58 | 47.18083 | 17.72312 | 5106 ft | 262 kts | 259° |
| 2026-04-21 09:59 | 47.17637 | 17.69753 | 4999 ft | 252 kts | 259° |
| 2026-04-21 09:59 | 47.17211 | 17.67305 | 4901 ft | 243 kts | 259° |
| 2026-04-21 09:59 | 47.16876 | 17.64914 | 4598 ft | 238 kts | 272° |
| 2026-04-21 09:59 | 47.17100 | 17.62611 | 4390 ft | 226 kts | 294° |
| 2026-04-21 10:00 | 47.17848 | 17.60659 | 4198 ft | 216 kts | 313° |
| 2026-04-21 10:00 | 47.18975 | 17.59265 | 3954 ft | 210 kts | 331° |
| 2026-04-21 10:00 | 47.20311 | 17.58462 | 3682 ft | 206 kts | 341° |
| 2026-04-21 10:00 | 47.21652 | 17.57767 | 3420 ft | 200 kts | 340° |
| 2026-04-21 10:01 | 47.22919 | 17.57108 | 3151 ft | 187 kts | 341° |
| 2026-04-21 10:01 | 47.24111 | 17.56486 | 2909 ft | 176 kts | 341° |
| 2026-04-21 10:01 | 47.25223 | 17.55906 | 2688 ft | 161 kts | 341° |
| 2026-04-21 10:01 | 47.26234 | 17.55378 | 2484 ft | 144 kts | 341° |
| 2026-04-21 10:02 | 47.28003 | 17.54453 | 2088 ft | 130 kts | 340° |
| 2026-04-21 10:02 | 47.28854 | 17.54008 | 1907 ft | 129 kts | 341° |
| 2026-04-21 10:02 | 47.29697 | 17.53568 | 1746 ft | 129 kts | 341° |
| 2026-04-21 10:03 | 47.30551 | 17.53121 | 1559 ft | 129 kts | 340° |
| 2026-04-21 10:03 | 47.31394 | 17.52680 | 1378 ft | 127 kts | 339° |
| 2026-04-21 10:03 | 47.32228 | 17.52244 | 1199 ft | 127 kts | 340° |
| 2026-04-21 10:03 | 47.33074 | 17.51801 | 1017 ft | 131 kts | 340° |
| 2026-04-21 10:04 | 47.33925 | 17.51358 | 829 ft | 129 kts | 340° |
| 2026-04-21 10:04 | 47.34775 | 17.50911 | 656 ft | 129 kts | 341° |
| 2026-04-21 10:04 | 47.35613 | 17.50470 | 501 ft | 125 kts | 340° |
| 2026-04-21 10:04 | 47.36339 | 17.50089 | 486 ft | 102 kts | 340° |
| 2026-04-21 10:05 | 47.37159 | 17.49657 | 620 ft | 146 kts | 340° |
| 2026-04-21 10:05 | 47.38103 | 17.49159 | 1597 ft | 144 kts | 340° |
| 2026-04-21 10:05 | 47.39065 | 17.48675 | 1889 ft | 151 kts | 340° |
| 2026-04-21 10:05 | 47.40166 | 17.48492 | 2056 ft | 171 kts | 10° |
| 2026-04-21 10:06 | 47.41213 | 17.49453 | 2065 ft | 186 kts | 50° |
| 2026-04-21 10:06 | 47.41595 | 17.51287 | 2048 ft | 196 kts | 88° |
| 2026-04-21 10:06 | 47.41169 | 17.53182 | 2026 ft | 203 kts | 122° |
| 2026-04-21 10:06 | 47.40120 | 17.54589 | 2021 ft | 206 kts | 151° |
| 2026-04-21 10:07 | 47.38803 | 17.55427 | 2008 ft | 207 kts | 161° |
| 2026-04-21 10:07 | 47.37436 | 17.56123 | 1970 ft | 208 kts | 161° |
| 2026-04-21 10:07 | 47.36061 | 17.56796 | 1930 ft | 208 kts | 162° |
| 2026-04-21 10:07 | 47.34698 | 17.57474 | 1952 ft | 206 kts | 161° |
| 2026-04-21 10:08 | 47.33342 | 17.58162 | 1948 ft | 208 kts | 161° |
| 2026-04-21 10:08 | 47.32028 | 17.58836 | 1954 ft | 191 kts | 161° |
| 2026-04-21 10:08 | 47.30798 | 17.59283 | 1907 ft | 175 kts | 183° |
| 2026-04-21 10:08 | 47.29698 | 17.58808 | 1756 ft | 160 kts | 225° |
| 2026-04-21 10:09 | 47.29100 | 17.57565 | 1640 ft | 144 kts | 261° |
| 2026-04-21 10:09 | 47.29024 | 17.56151 | 1549 ft | 136 kts | 287° |
| 2026-04-21 10:09 | 47.29342 | 17.54886 | 1517 ft | 129 kts | 308° |
| 2026-04-21 10:09 | 47.29951 | 17.53914 | 1495 ft | 127 kts | 324° |
| 2026-04-21 10:10 | 47.30701 | 17.53211 | 1506 ft | 130 kts | 333° |
| 2026-04-21 10:10 | 47.31522 | 17.52670 | 1374 ft | 128 kts | 338° |
| 2026-04-21 10:10 | 47.32364 | 17.52212 | 1170 ft | 127 kts | 338° |
| 2026-04-21 10:10 | 47.33195 | 17.51744 | 972 ft | 127 kts | 339° |
| 2026-04-21 10:11 | 47.34023 | 17.51311 | 832 ft | 126 kts | 339° |
| 2026-04-21 10:11 | 47.34859 | 17.50867 | 642 ft | 129 kts | 340° |
| 2026-04-21 10:11 | 47.35689 | 17.50429 | 491 ft | 117 kts | 340° |
| 2026-04-21 10:11 | 47.36378 | 17.50069 | 485 ft | 102 kts | 340° |
| 2026-04-21 10:12 | 47.37230 | 17.49621 | 715 ft | 147 kts | 340° |
| 2026-04-21 10:12 | 47.38204 | 17.49119 | 1691 ft | 150 kts | 340° |
| 2026-04-21 10:12 | 47.39281 | 17.48581 | 1917 ft | 175 kts | 341° |
| 2026-04-21 10:12 | 47.40440 | 17.48044 | 2014 ft | 174 kts | 347° |
| 2026-04-21 10:13 | 47.41644 | 17.48206 | 2044 ft | 180 kts | 23° |
| 2026-04-21 10:13 | 47.42502 | 17.49564 | 2044 ft | 190 kts | 64° |
| 2026-04-21 10:13 | 47.42564 | 17.51527 | 2083 ft | 200 kts | 104° |
| 2026-04-21 10:13 | 47.41798 | 17.53244 | 2081 ft | 206 kts | 139° |
| 2026-04-21 10:14 | 47.40534 | 17.54232 | 2035 ft | 206 kts | 160° |
| 2026-04-21 10:14 | 47.39195 | 17.54931 | 1990 ft | 204 kts | 161° |
| 2026-04-21 10:14 | 47.37847 | 17.55592 | 1941 ft | 205 kts | 162° |
| 2026-04-21 10:14 | 47.36501 | 17.56283 | 1900 ft | 205 kts | 160° |
| 2026-04-21 10:15 | 47.35157 | 17.56967 | 1881 ft | 203 kts | 162° |
| 2026-04-21 10:15 | 47.33815 | 17.57610 | 1849 ft | 203 kts | 163° |
| 2026-04-21 10:15 | 47.32487 | 17.58237 | 1864 ft | 199 kts | 162° |
| 2026-04-21 10:15 | 47.31222 | 17.58601 | 1836 ft | 175 kts | 188° |
| 2026-04-21 10:16 | 47.30172 | 17.57986 | 1720 ft | 157 kts | 228° |
| 2026-04-21 10:16 | 47.29651 | 17.56711 | 1662 ft | 142 kts | 264° |
| 2026-04-21 10:16 | 47.29704 | 17.55324 | 1622 ft | 133 kts | 293° |
| 2026-04-21 10:16 | 47.30144 | 17.54160 | 1466 ft | 129 kts | 313° |
| 2026-04-21 10:17 | 47.30816 | 17.53343 | 1444 ft | 126 kts | 328° |
| 2026-04-21 10:17 | 47.31589 | 17.52716 | 1328 ft | 128 kts | 334° |
| 2026-04-21 10:17 | 47.32404 | 17.52201 | 1161 ft | 129 kts | 337° |
| 2026-04-21 10:17 | 47.33239 | 17.51725 | 948 ft | 126 kts | 338° |
| 2026-04-21 10:18 | 47.34067 | 17.51291 | 768 ft | 128 kts | 338° |
| 2026-04-21 10:18 | 47.34893 | 17.50848 | 632 ft | 126 kts | 340° |
| 2026-04-21 10:18 | 47.35709 | 17.50418 | 489 ft | 116 kts | 340° |
| 2026-04-21 10:18 | 47.36391 | 17.50061 | 485 ft | 100 kts | 340° |
| 2026-04-21 10:19 | 47.37228 | 17.49620 | 657 ft | 148 kts | 340° |
| 2026-04-21 10:19 | 47.38211 | 17.49098 | 1598 ft | 153 kts | 340° |
| 2026-04-21 10:19 | 47.39270 | 17.48579 | 1958 ft | 176 kts | 346° |
| 2026-04-21 10:19 | 47.40529 | 17.48677 | 2085 ft | 188 kts | 17° |
| 2026-04-21 10:20 | 47.41577 | 17.49788 | 2130 ft | 194 kts | 48° |
| 2026-04-21 10:20 | 47.42078 | 17.51654 | 2131 ft | 200 kts | 81° |
| 2026-04-21 10:20 | 47.41796 | 17.53673 | 2128 ft | 204 kts | 118° |
| 2026-04-21 10:20 | 47.40783 | 17.55068 | 2100 ft | 206 kts | 154° |
| 2026-04-21 10:21 | 47.39445 | 17.55824 | 2085 ft | 206 kts | 161° |
| 2026-04-21 10:21 | 47.38099 | 17.56517 | 2015 ft | 204 kts | 162° |
| 2026-04-21 10:21 | 47.36759 | 17.57184 | 1962 ft | 203 kts | 161° |
| 2026-04-21 10:21 | 47.35416 | 17.57853 | 1904 ft | 204 kts | 161° |
| 2026-04-21 10:22 | 47.34064 | 17.58522 | 1893 ft | 207 kts | 162° |
| 2026-04-21 10:22 | 47.32744 | 17.59158 | 1907 ft | 190 kts | 167° |
| 2026-04-21 10:22 | 47.31511 | 17.59162 | 1821 ft | 168 kts | 201° |
| 2026-04-21 10:22 | 47.30583 | 17.58306 | 1733 ft | 150 kts | 238° |
| 2026-04-21 10:23 | 47.30198 | 17.56958 | 1610 ft | 139 kts | 270° |
| 2026-04-21 10:23 | 47.30327 | 17.55594 | 1521 ft | 133 kts | 297° |
| 2026-04-21 10:23 | 47.30810 | 17.54459 | 1466 ft | 130 kts | 312° |
| 2026-04-21 10:23 | 47.31386 | 17.53473 | 1469 ft | 126 kts | 313° |
| 2026-04-21 10:24 | 47.32026 | 17.52572 | 1329 ft | 127 kts | 324° |
| 2026-04-21 10:24 | 47.32796 | 17.51961 | 1119 ft | 126 kts | 337° |
| 2026-04-21 10:24 | 47.33622 | 17.51525 | 886 ft | 128 kts | 338° |
| 2026-04-21 10:24 | 47.34457 | 17.51073 | 697 ft | 128 kts | 339° |
| 2026-04-21 10:25 | 47.35291 | 17.50639 | 530 ft | 127 kts | 340° |
| 2026-04-21 10:25 | 47.36051 | 17.50240 | 483 ft | 103 kts | 340° |
| 2026-04-21 10:25 | 47.36787 | 17.49853 | 481 ft | 139 kts | 340° |
| 2026-04-21 10:25 | 47.37727 | 17.49362 | 1268 ft | 143 kts | 340° |
| 2026-04-21 10:26 | 47.38697 | 17.48878 | 1840 ft | 158 kts | 340° |
| 2026-04-21 10:26 | 47.39796 | 17.48366 | 1974 ft | 171 kts | 348° |
| 2026-04-21 10:26 | 47.40980 | 17.48628 | 1952 ft | 179 kts | 25° |
| 2026-04-21 10:26 | 47.41824 | 17.49982 | 1986 ft | 187 kts | 63° |
| 2026-04-21 10:27 | 47.41956 | 17.51908 | 2028 ft | 197 kts | 100° |
| 2026-04-21 10:27 | 47.41280 | 17.53688 | 2049 ft | 204 kts | 136° |
| 2026-04-21 10:27 | 47.40043 | 17.54693 | 2063 ft | 206 kts | 162° |
| 2026-04-21 10:27 | 47.38680 | 17.55383 | 2007 ft | 206 kts | 161° |
| 2026-04-21 10:28 | 47.37333 | 17.56077 | 1934 ft | 206 kts | 161° |
| 2026-04-21 10:28 | 47.35968 | 17.56773 | 1853 ft | 208 kts | 161° |
| 2026-04-21 10:28 | 47.34601 | 17.57465 | 1779 ft | 207 kts | 161° |
| 2026-04-21 10:28 | 47.33239 | 17.58152 | 1829 ft | 206 kts | 162° |
| 2026-04-21 10:29 | 47.31925 | 17.58787 | 1905 ft | 188 kts | 167° |
| 2026-04-21 10:29 | 47.30707 | 17.58780 | 1864 ft | 166 kts | 202° |
| 2026-04-21 10:29 | 47.29774 | 17.57948 | 1880 ft | 151 kts | 233° |
| 2026-04-21 10:29 | 47.29280 | 17.56693 | 1880 ft | 140 kts | 263° |
| 2026-04-21 10:30 | 47.29274 | 17.55318 | 1837 ft | 130 kts | 292° |
| 2026-04-21 10:30 | 47.29685 | 17.54204 | 1786 ft | 124 kts | 316° |
| 2026-04-21 10:30 | 47.30370 | 17.53448 | 1638 ft | 124 kts | 331° |
| 2026-04-21 10:30 | 47.31163 | 17.52897 | 1474 ft | 127 kts | 336° |
| 2026-04-21 10:31 | 47.31986 | 17.52407 | 1276 ft | 127 kts | 337° |
| 2026-04-21 10:31 | 47.32815 | 17.51946 | 1062 ft | 129 kts | 338° |
| 2026-04-21 10:31 | 47.33649 | 17.51506 | 871 ft | 125 kts | 339° |
| 2026-04-21 10:31 | 47.34475 | 17.51065 | 685 ft | 127 kts | 340° |
| 2026-04-21 10:32 | 47.35298 | 17.50636 | 537 ft | 125 kts | 340° |
| 2026-04-21 10:32 | 47.36052 | 17.50238 | 489 ft | 102 kts | 340° |
| 2026-04-21 10:32 | 47.36795 | 17.49849 | 484 ft | 141 kts | 340° |
| 2026-04-21 10:32 | 47.37762 | 17.49342 | 1317 ft | 143 kts | 340° |
| 2026-04-21 10:33 | 47.38700 | 17.48852 | 1843 ft | 160 kts | 340° |
| 2026-04-21 10:33 | 47.39810 | 17.48311 | 1987 ft | 171 kts | 345° |
| 2026-04-21 10:33 | 47.40997 | 17.48460 | 2014 ft | 177 kts | 22° |
| 2026-04-21 10:33 | 47.41889 | 17.49694 | 2038 ft | 185 kts | 58° |
| 2026-04-21 10:34 | 47.42146 | 17.51581 | 2037 ft | 195 kts | 92° |
| 2026-04-21 10:34 | 47.41628 | 17.53451 | 2046 ft | 202 kts | 128° |
| 2026-04-21 10:34 | 47.40494 | 17.54649 | 2066 ft | 204 kts | 159° |
| 2026-04-21 10:34 | 47.39151 | 17.55346 | 2055 ft | 205 kts | 162° |
| 2026-04-21 10:35 | 47.37795 | 17.56016 | 1981 ft | 205 kts | 162° |
| 2026-04-21 10:35 | 47.36448 | 17.56678 | 1933 ft | 203 kts | 162° |
| 2026-04-21 10:35 | 47.35105 | 17.57330 | 1900 ft | 203 kts | 161° |
| 2026-04-21 10:35 | 47.33758 | 17.57987 | 1870 ft | 203 kts | 162° |
| 2026-04-21 10:36 | 47.32413 | 17.58614 | 1893 ft | 200 kts | 163° |
| 2026-04-21 10:36 | 47.31126 | 17.58910 | 1886 ft | 175 kts | 190° |
| 2026-04-21 10:36 | 47.30073 | 17.58292 | 1871 ft | 155 kts | 224° |
| 2026-04-21 10:36 | 47.29463 | 17.57084 | 1827 ft | 143 kts | 254° |
| 2026-04-21 10:37 | 47.29244 | 17.55699 | 1753 ft | 137 kts | 276° |
| 2026-04-21 10:37 | 47.29428 | 17.54365 | 1684 ft | 131 kts | 302° |
| 2026-04-21 10:37 | 47.29979 | 17.53394 | 1685 ft | 126 kts | 327° |
| 2026-04-21 10:37 | 47.30800 | 17.52938 | 1499 ft | 128 kts | 342° |
| 2026-04-21 10:38 | 47.31639 | 17.52535 | 1283 ft | 126 kts | 338° |
| 2026-04-21 10:38 | 47.32462 | 17.52115 | 1100 ft | 126 kts | 339° |
| 2026-04-21 10:38 | 47.33303 | 17.51678 | 932 ft | 129 kts | 340° |
| 2026-04-21 10:38 | 47.34142 | 17.51242 | 764 ft | 126 kts | 339° |
| 2026-04-21 10:39 | 47.34963 | 17.50812 | 595 ft | 126 kts | 341° |
| 2026-04-21 10:39 | 47.35763 | 17.50390 | 488 ft | 111 kts | 340° |
| 2026-04-21 10:39 | 47.36458 | 17.50026 | 487 ft | 112 kts | 340° |
| 2026-04-21 10:39 | 47.37384 | 17.49541 | 816 ft | 152 kts | 341° |
| 2026-04-21 10:40 | 47.38367 | 17.49042 | 1693 ft | 156 kts | 341° |
| 2026-04-21 10:40 | 47.39465 | 17.48512 | 1947 ft | 171 kts | 345° |
| 2026-04-21 10:40 | 47.40633 | 17.48669 | 2021 ft | 178 kts | 22° |
| 2026-04-21 10:40 | 47.41491 | 17.49994 | 2039 ft | 187 kts | 62° |
| 2026-04-21 10:41 | 47.41610 | 17.51919 | 2061 ft | 197 kts | 101° |
| 2026-04-21 10:41 | 47.40948 | 17.53708 | 2070 ft | 202 kts | 134° |
| 2026-04-21 10:41 | 47.39764 | 17.54790 | 2049 ft | 201 kts | 159° |
| 2026-04-21 10:41 | 47.38443 | 17.55486 | 2016 ft | 203 kts | 161° |
| 2026-04-21 10:42 | 47.37101 | 17.56145 | 1952 ft | 203 kts | 163° |
| 2026-04-21 10:42 | 47.35764 | 17.56802 | 1931 ft | 203 kts | 162° |
| 2026-04-21 10:42 | 47.34420 | 17.57452 | 1923 ft | 202 kts | 162° |
| 2026-04-21 10:42 | 47.33563 | 17.57879 | 1929 ft | 190 kts | 161° |
| 2026-04-21 10:43 | 47.32318 | 17.58189 | 1849 ft | 176 kts | 193° |
| 2026-04-21 10:43 | 47.31293 | 17.57489 | 1709 ft | 155 kts | 227° |
| 2026-04-21 10:43 | 47.30662 | 17.56300 | 1573 ft | 145 kts | 252° |
| 2026-04-21 10:43 | 47.30414 | 17.54918 | 1442 ft | 137 kts | 274° |
| 2026-04-21 10:44 | 47.30600 | 17.53593 | 1429 ft | 128 kts | 301° |
| 2026-04-21 10:44 | 47.31208 | 17.52709 | 1448 ft | 126 kts | 333° |
| 2026-04-21 10:44 | 47.32051 | 17.52304 | 1245 ft | 127 kts | 340° |
| 2026-04-21 10:44 | 47.32898 | 17.51887 | 1046 ft | 129 kts | 340° |
| 2026-04-21 10:45 | 47.33732 | 17.51452 | 837 ft | 128 kts | 340° |
| 2026-04-21 10:45 | 47.34563 | 17.51014 | 838 ft | 132 kts | 340° |
| 2026-04-21 10:45 | 47.35440 | 17.50563 | 1487 ft | 139 kts | 340° |
| 2026-04-21 10:45 | 47.36418 | 17.50065 | 1847 ft | 155 kts | 340° |
| 2026-04-21 10:46 | 47.37493 | 17.49520 | 1962 ft | 171 kts | 340° |
| 2026-04-21 10:46 | 47.38645 | 17.49037 | 1939 ft | 175 kts | 355° |
| 2026-04-21 10:46 | 47.39783 | 17.49566 | 1952 ft | 179 kts | 35° |
| 2026-04-21 10:46 | 47.40436 | 17.51160 | 2066 ft | 191 kts | 73° |
| 2026-04-21 10:47 | 47.40284 | 17.53114 | 2072 ft | 199 kts | 112° |
| 2026-04-21 10:47 | 47.39373 | 17.54672 | 2082 ft | 203 kts | 147° |
| 2026-04-21 10:47 | 47.38086 | 17.55544 | 2018 ft | 204 kts | 160° |
| 2026-04-21 10:47 | 47.36751 | 17.56229 | 1970 ft | 201 kts | 162° |
| 2026-04-21 10:48 | 47.35424 | 17.56887 | 1915 ft | 202 kts | 161° |
| 2026-04-21 10:48 | 47.34096 | 17.57563 | 1897 ft | 203 kts | 161° |
| 2026-04-21 10:48 | 47.32782 | 17.58237 | 1870 ft | 197 kts | 161° |
| 2026-04-21 10:48 | 47.31518 | 17.58601 | 1851 ft | 174 kts | 186° |
| 2026-04-21 10:49 | 47.30441 | 17.58092 | 1823 ft | 157 kts | 221° |
| 2026-04-21 10:49 | 47.29788 | 17.56931 | 1766 ft | 144 kts | 255° |
| 2026-04-21 10:49 | 47.29670 | 17.55541 | 1723 ft | 134 kts | 284° |
| 2026-04-21 10:49 | 47.30040 | 17.54327 | 1670 ft | 128 kts | 313° |
| 2026-04-21 10:50 | 47.30715 | 17.53482 | 1465 ft | 127 kts | 327° |
| 2026-04-21 10:50 | 47.31483 | 17.52834 | 1213 ft | 124 kts | 332° |
| 2026-04-21 10:50 | 47.32269 | 17.52292 | 1110 ft | 128 kts | 336° |
| 2026-04-21 10:50 | 47.33093 | 17.51789 | 1016 ft | 127 kts | 339° |
| 2026-04-21 10:51 | 47.33926 | 17.51355 | 833 ft | 125 kts | 340° |
| 2026-04-21 10:51 | 47.34729 | 17.50931 | 652 ft | 127 kts | 341° |
| 2026-04-21 10:51 | 47.35560 | 17.50497 | 504 ft | 121 kts | 340° |
| 2026-04-21 10:51 | 47.36228 | 17.50144 | 484 ft | 78 kts | 340° |
| 2026-04-21 10:52 | 47.36577 | 17.49962 | 479 ft | 39 kts | 341° |
| 2026-04-21 10:52 | 47.36749 | 17.49873 | 481 ft | 22 kts | 341° |
| 2026-04-21 10:52 | 47.36895 | 17.49797 | 484 ft | 22 kts | 340° |
| 2026-04-21 10:52 | 47.37036 | 17.49723 | 484 ft | 22 kts | 340° |
| 2026-04-21 10:53 | 47.37183 | 17.49646 | 485 ft | 23 kts | 340° |
| 2026-04-21 10:53 | 47.37335 | 17.49566 | 485 ft | 17 kts | 340° |
| 2026-04-21 10:53 | 47.37385 | 17.49504 | 487 ft | 9 kts | 262° |
| 2026-04-21 10:53 | 47.37319 | 17.49440 | 487 ft | 13 kts | 204° |
| 2026-04-21 10:54 | 47.37225 | 17.49378 | 480 ft | 16 kts | 204° |
| 2026-04-21 10:54 | 47.37114 | 17.49307 | 485 ft | 19 kts | 202° |
| 2026-04-21 10:54 | 47.36983 | 17.49226 | 484 ft | 22 kts | 203° |
| 2026-04-21 10:54 | 47.36834 | 17.49132 | 484 ft | 25 kts | 204° |
| 2026-04-21 10:55 | 47.36751 | 17.49029 | 486 ft | 15 kts | 222° |
| 2026-04-21 10:55 | 47.36648 | 17.49060 | 484 ft | 17 kts | 160° |
| 2026-04-21 10:55 | 47.36529 | 17.49124 | 486 ft | 20 kts | 160° |
| 2026-04-21 10:55 | 47.36390 | 17.49199 | 483 ft | 23 kts | 160° |
| 2026-04-21 10:56 | 47.36234 | 17.49281 | 484 ft | 25 kts | 160° |
| 2026-04-21 10:56 | 47.36060 | 17.49369 | 484 ft | 28 kts | 161° |
| 2026-04-21 10:56 | 47.35867 | 17.49474 | 478 ft | 31 kts | 161° |
| 2026-04-21 10:56 | 47.35680 | 17.49566 | 479 ft | 19 kts | 168° |
| 2026-04-21 10:57 | 47.35543 | 17.49622 | 484 ft | 22 kts | 158° |
| 2026-04-21 10:57 | 47.35399 | 17.49698 | 484 ft | 14 kts | 160° |
| 2026-04-21 10:57 | 47.35350 | 17.49810 | 481 ft | 15 kts | 90° |
| 2026-04-21 10:57 | 47.35356 | 17.49985 | 485 ft | 19 kts | 87° |
| 2026-04-21 10:58 | 47.35361 | 17.50119 | 487 ft | 13 kts | 85° |
| 2026-04-21 10:58 | 47.35365 | 17.50245 | 487 ft | 0 kts | 87° |
| 2026-04-21 11:06 | 47.35365 | 17.50270 | 487 ft | 5 kts | 87° |
| 2026-04-21 11:06 | 47.35368 | 17.50372 | 485 ft | 14 kts | 88° |
| 2026-04-21 11:07 | 47.35379 | 17.50533 | 486 ft | 10 kts | 75° |
| 2026-04-21 11:07 | 47.35408 | 17.50577 | 482 ft | 6 kts | 347° |
| 2026-04-21 11:07 | 47.35474 | 17.50541 | 484 ft | 21 kts | 340° |
| 2026-04-21 11:07 | 47.35747 | 17.50399 | 483 ft | 74 kts | 340° |
| 2026-04-21 11:08 | 47.36427 | 17.50041 | 488 ft | 133 kts | 340° |
| 2026-04-21 11:08 | 47.37354 | 17.49557 | 1062 ft | 140 kts | 340° |
| 2026-04-21 11:08 | 47.38268 | 17.49079 | 1915 ft | 139 kts | 339° |
| 2026-04-21 11:08 | 47.39251 | 17.48563 | 2330 ft | 161 kts | 341° |
| 2026-04-21 11:09 | 47.40437 | 17.48505 | 2684 ft | 189 kts | 18° |
| 2026-04-21 11:09 | 47.41464 | 17.49898 | 3125 ft | 224 kts | 61° |
| 2026-04-21 11:09 | 47.41754 | 17.52306 | 3682 ft | 255 kts | 87° |
| 2026-04-21 11:09 | 47.41576 | 17.55003 | 4595 ft | 268 kts | 95° |
| 2026-04-21 11:10 | 47.41243 | 17.57728 | 5691 ft | 272 kts | 98° |
| 2026-04-21 11:10 | 47.40884 | 17.60487 | 6778 ft | 275 kts | 98° |
| 2026-04-21 11:10 | 47.40544 | 17.63285 | 7793 ft | 278 kts | 98° |
| 2026-04-21 11:10 | 47.40235 | 17.66127 | 8805 ft | 283 kts | 95° |
| 2026-04-21 11:11 | 47.39949 | 17.69022 | 9848 ft | 287 kts | 97° |
| 2026-04-21 11:11 | 47.39673 | 17.72011 | 10492 ft | 304 kts | 96° |
| 2026-04-21 11:11 | 47.39391 | 17.75208 | 11068 ft | 320 kts | 95° |
| 2026-04-21 11:11 | 47.39104 | 17.78506 | 11897 ft | 327 kts | 96° |
| 2026-04-21 11:12 | 47.38813 | 17.81868 | 12831 ft | 332 kts | 96° |
| 2026-04-21 11:12 | 47.38525 | 17.85278 | 13794 ft | 339 kts | 94° |
| 2026-04-21 11:12 | 47.38428 | 17.88774 | 14610 ft | 344 kts | 89° |
| 2026-04-21 11:12 | 47.38360 | 17.92277 | 15415 ft | 348 kts | 90° |
| 2026-04-21 11:13 | 47.38288 | 17.95853 | 16249 ft | 351 kts | 89° |
| 2026-04-21 11:13 | 47.38212 | 17.99491 | 17039 ft | 356 kts | 89° |
| 2026-04-21 11:13 | 47.38133 | 18.03157 | 17848 ft | 360 kts | 89° |
| 2026-04-21 11:13 | 47.38052 | 18.06869 | 18634 ft | 363 kts | 89° |
| 2026-04-21 11:14 | 47.37970 | 18.10620 | 18985 ft | 368 kts | 89° |
| 2026-04-21 11:14 | 47.37885 | 18.14372 | 19053 ft | 358 kts | 90° |
| 2026-04-21 11:14 | 47.37799 | 18.17965 | 19065 ft | 345 kts | 89° |
| 2026-04-21 11:14 | 47.37715 | 18.21491 | 19062 ft | 343 kts | 89° |
| 2026-04-21 11:15 | 47.37617 | 18.24996 | 19057 ft | 343 kts | 92° |
| 2026-04-21 11:15 | 47.37179 | 18.28462 | 19059 ft | 345 kts | 105° |
| 2026-04-21 11:15 | 47.36265 | 18.31745 | 19059 ft | 348 kts | 116° |
| 2026-04-21 11:15 | 47.35023 | 18.34817 | 19060 ft | 349 kts | 119° |
| 2026-04-21 11:16 | 47.33766 | 18.37881 | 19062 ft | 349 kts | 119° |
| 2026-04-21 11:16 | 47.32511 | 18.40939 | 19054 ft | 349 kts | 120° |
| 2026-04-21 11:16 | 47.31257 | 18.43995 | 19053 ft | 348 kts | 119° |
| 2026-04-21 11:16 | 47.30021 | 18.47017 | 19052 ft | 349 kts | 119° |
| 2026-04-21 11:17 | 47.28720 | 18.50202 | 19059 ft | 361 kts | 119° |
| 2026-04-21 11:17 | 47.27455 | 18.53281 | 18870 ft | 343 kts | 120° |
| 2026-04-21 11:17 | 47.26239 | 18.56235 | 18332 ft | 334 kts | 119° |
| 2026-04-21 11:17 | 47.25043 | 18.59141 | 17645 ft | 329 kts | 119° |
| 2026-04-21 11:18 | 47.23855 | 18.62026 | 17158 ft | 329 kts | 120° |
| 2026-04-21 11:18 | 47.22674 | 18.64894 | 16833 ft | 327 kts | 120° |
| 2026-04-21 11:18 | 47.21496 | 18.67751 | 16412 ft | 325 kts | 120° |
| 2026-04-21 11:18 | 47.20331 | 18.70593 | 16033 ft | 323 kts | 118° |
| 2026-04-21 11:19 | 47.19469 | 18.73623 | 15670 ft | 319 kts | 103° |
| 2026-04-21 11:19 | 47.19127 | 18.76817 | 15307 ft | 315 kts | 89° |
| 2026-04-21 11:19 | 47.19233 | 18.79974 | 14939 ft | 313 kts | 83° |
| 2026-04-21 11:19 | 47.19408 | 18.83156 | 14572 ft | 312 kts | 83° |
| 2026-04-21 11:20 | 47.19574 | 18.86335 | 14228 ft | 311 kts | 83° |
| 2026-04-21 11:20 | 47.19737 | 18.89500 | 13880 ft | 310 kts | 83° |
| 2026-04-21 11:20 | 47.19899 | 18.92651 | 13517 ft | 308 kts | 83° |
| 2026-04-21 11:20 | 47.20061 | 18.95781 | 13158 ft | 306 kts | 83° |
| 2026-04-21 11:21 | 47.20221 | 18.98894 | 12793 ft | 304 kts | 83° |
| 2026-04-21 11:21 | 47.20381 | 19.01981 | 12453 ft | 302 kts | 84° |
| 2026-04-21 11:21 | 47.20539 | 19.05051 | 12098 ft | 300 kts | 84° |
| 2026-04-21 11:21 | 47.20695 | 19.08100 | 11757 ft | 298 kts | 83° |
| 2026-04-21 11:22 | 47.20848 | 19.11124 | 11275 ft | 295 kts | 83° |
| 2026-04-21 11:22 | 47.20999 | 19.14117 | 10772 ft | 292 kts | 83° |
| 2026-04-21 11:22 | 47.21150 | 19.17083 | 10257 ft | 289 kts | 83° |
| 2026-04-21 11:22 | 47.21299 | 19.20022 | 9744 ft | 287 kts | 84° |
| 2026-04-21 11:23 | 47.21445 | 19.22935 | 9220 ft | 284 kts | 83° |
| 2026-04-21 11:23 | 47.21586 | 19.25823 | 8694 ft | 282 kts | 85° |
| 2026-04-21 11:23 | 47.21723 | 19.28688 | 8168 ft | 280 kts | 83° |
| 2026-04-21 11:23 | 47.21859 | 19.31527 | 7658 ft | 278 kts | 85° |
| 2026-04-21 11:24 | 47.21994 | 19.34322 | 7384 ft | 267 kts | 83° |
| 2026-04-21 11:24 | 47.22125 | 19.36991 | 7131 ft | 257 kts | 82° |
| 2026-04-21 11:24 | 47.22531 | 19.39511 | 6693 ft | 251 kts | 64° |
| 2026-04-21 11:24 | 47.23406 | 19.41662 | 6361 ft | 239 kts | 48° |
| 2026-04-21 11:25 | 47.24557 | 19.43318 | 6090 ft | 225 kts | 38° |
| 2026-04-21 11:25 | 47.25716 | 19.44868 | 5790 ft | 224 kts | 40° |
| 2026-04-21 11:25 | 47.26875 | 19.46431 | 5356 ft | 229 kts | 41° |
| 2026-04-21 11:25 | 47.28043 | 19.47985 | 5029 ft | 228 kts | 39° |
| 2026-04-21 11:26 | 47.29195 | 19.49522 | 4898 ft | 219 kts | 39° |
| 2026-04-21 11:26 | 47.30298 | 19.51009 | 4759 ft | 211 kts | 41° |
| 2026-04-21 11:26 | 47.31360 | 19.52436 | 4632 ft | 203 kts | 40° |
| 2026-04-21 11:26 | 47.32364 | 19.53849 | 4488 ft | 198 kts | 51° |
| 2026-04-21 11:27 | 47.32798 | 19.55735 | 4359 ft | 199 kts | 89° |
| 2026-04-21 11:27 | 47.32343 | 19.57636 | 4227 ft | 202 kts | 129° |
| 2026-04-21 11:27 | 47.31184 | 19.58735 | 4119 ft | 200 kts | 168° |
| 2026-04-21 11:27 | 47.29829 | 19.58554 | 4054 ft | 197 kts | 207° |
| 2026-04-21 11:28 | 47.28866 | 19.57201 | 3972 ft | 193 kts | 249° |
| 2026-04-21 11:28 | 47.28677 | 19.55308 | 3906 ft | 188 kts | 279° |
| 2026-04-21 11:28 | 47.28889 | 19.53407 | 3835 ft | 188 kts | 284° |
| 2026-04-21 11:28 | 47.29184 | 19.51528 | 3755 ft | 189 kts | 286° |
| 2026-04-21 11:29 | 47.29654 | 19.49754 | 3665 ft | 185 kts | 308° |
| 2026-04-21 11:29 | 47.30500 | 19.48336 | 3609 ft | 184 kts | 315° |
| 2026-04-21 11:29 | 47.31363 | 19.46959 | 3546 ft | 183 kts | 316° |
| 2026-04-21 11:29 | 47.32229 | 19.45574 | 3377 ft | 185 kts | 314° |
| 2026-04-21 11:30 | 47.33089 | 19.44195 | 3150 ft | 185 kts | 314° |
| 2026-04-21 11:30 | 47.33675 | 19.43255 | 2989 ft | 184 kts | 315° |
| 2026-04-21 11:30 | 47.34537 | 19.41870 | 2759 ft | 180 kts | 316° |
| 2026-04-21 11:30 | 47.35357 | 19.40552 | 2496 ft | 168 kts | 314° |
| 2026-04-21 11:31 | 47.36361 | 19.38939 | 2205 ft | 157 kts | 315° |
| 2026-04-21 11:31 | 47.36856 | 19.38144 | 2056 ft | 154 kts | 315° |
| 2026-04-21 11:31 | 47.37568 | 19.37000 | 1851 ft | 149 kts | 314° |
| 2026-04-21 11:31 | 47.38260 | 19.35886 | 1656 ft | 146 kts | 314° |
| 2026-04-21 11:32 | 47.39155 | 19.34445 | 1380 ft | 141 kts | 314° |
| 2026-04-21 11:32 | 47.39599 | 19.33730 | 1250 ft | 138 kts | 315° |
| 2026-04-21 11:32 | 47.40244 | 19.32692 | 1075 ft | 136 kts | 314° |
| 2026-04-21 11:32 | 47.40883 | 19.31663 | 856 ft | 134 kts | 314° |
| 2026-04-21 11:33 | 47.41508 | 19.30649 | 731 ft | 132 kts | 313° |
| 2026-04-21 11:33 | 47.42127 | 19.29665 | 526 ft | 129 kts | 313° |
| 2026-04-21 11:33 | 47.42712 | 19.28717 | 447 ft | 111 kts | 311° |
| 2026-04-21 11:33 | 47.43122 | 19.28052 | 461 ft | 69 kts | 312° |
| 2026-04-21 11:34 | 47.43415 | 19.27579 | 468 ft | 58 kts | 312° |
| 2026-04-21 11:34 | 47.43671 | 19.27167 | 474 ft | 53 kts | 312° |
| 2026-04-21 11:34 | 47.43909 | 19.26781 | 471 ft | 49 kts | 312° |
| 2026-04-21 11:34 | 47.44068 | 19.26480 | 471 ft | 24 kts | 282° |
| 2026-04-21 11:35 | 47.44008 | 19.26277 | 460 ft | 16 kts | 222° |
| 2026-04-21 11:35 | 47.43917 | 19.26155 | 457 ft | 20 kts | 222° |
| 2026-04-21 11:35 | 47.43818 | 19.26022 | 458 ft | 16 kts | 223° |
| 2026-04-21 11:35 | 47.43739 | 19.25978 | 456 ft | 14 kts | 155° |
| 2026-04-21 11:36 | 47.43677 | 19.26102 | 457 ft | 17 kts | 101° |
| 2026-04-21 11:36 | 47.43677 | 19.26293 | 458 ft | 20 kts | 97° |
| 2026-04-21 11:36 | 47.43605 | 19.26448 | 457 ft | 15 kts | 133° |
| 2026-04-21 11:36 | 47.43559 | 19.26522 | 458 ft | 5 kts | 135° |
| 2026-04-21 11:37 | 47.43529 | 19.26503 | 458 ft | 6 kts | 220° |
| 2026-04-21 11:37 | 47.43510 | 19.26476 | 458 ft | 1 kts | 223° |
| 2026-04-21 11:37 | 47.43508 | 19.26475 | 458 ft | 0 kts | 223° |